Brisbane, Queensland, Australia, Latitude 27°S 23' 52", Longitude 152° E 55' 35", Elevation 76 m

Thu 9 Feb 2023 3:20:15 am: Temperature: 21.1 °C, Humidity: 89 %, Wind speed: 0 km/h, Wind Gust: 4 km/h, Rain today: 0.0 mm, MSLP: 1009.9 hPa

Website under continual development from 11 years of weather data. Please contact us if you find issues or like to provide feedback.

Recent Observations

This page presents the weather data from the last 72 hours at 30 minute intervals.

Last updated at 3:20:15 am AEST on Thu 9 February 2023.

Last 24 hours
Date/Time(AEST) Temp. ( °C) Dew Point ( °C) Relative Humidity (%) Apparent Temp. ( °C) Wind Direction Wind Speed (kph) Wind Gust (kph) Wind Speed (kts) Wind Gust (kts) MSL Pressure (hPa) Rain since midnight (mm)
9/02 3:20 am 21.1 19.2 89 24.3 WSW 0 4 0 2 1009.9 0.0
9/02 2:50 am 21.2 19.2 88 24.5 CALM 0 0 0 0 1010.1 0.0
9/02 2:20 am 21.3 19.2 88 23.9 S 1 4 1 2 1010.4 0.0
9/02 1:50 am 21.8 19.2 86 25.2 CALM 0 0 0 0 1010.8 0.0
9/02 1:20 am 22.3 19.4 84 25.7 CALM 0 0 0 0 1011.1 0.0
9/02 12:50 am 22.9 19.7 82 25 S 2 8 1 4 1011.5 0.0
9/02 12:20 am 22.9 19.8 83 26.5 SSE 0 4 0 2 1011.9 0.0
8/02 11:50 pm 23.1 19.6 81 25.9 S 1 6 1 3 1012.0 0.0
8/02 11:20 pm 23.3 19.7 80 26.8 SSE 0 6 0 3 1012.3 0.0
8/02 10:50 pm 23.7 19.8 79 26.6 SSE 1 6 1 3 1012.7 0.0
8/02 10:20 pm 23.9 19.6 76 26.6 SSE 1 8 1 4 1012.9 0.0
8/02 9:50 pm 24.2 19.5 75 26.3 SSE 2 6 1 3 1013.0 0.0
8/02 9:20 pm 24.1 19.4 75 26.8 E 1 4 1 2 1013.1 0.0
8/02 8:50 pm 24.0 19.3 75 26 ESE 2 6 1 3 1013.0 0.0
8/02 8:20 pm 24.2 19.1 73 23.3 E 6 14 3 8 1012.7 0.0
8/02 7:50 pm 24.4 19.2 73 26.3 E 2 14 1 8 1012.3 0.0
8/02 7:20 pm 24.7 19.1 71 23.1 ENE 7 21 4 11 1012.1 0.0
8/02 6:50 pm 24.9 18.9 69 21.7 E 9 17 5 9 1011.6 0.0
8/02 6:20 pm 25.3 18.9 68 23.6 E 7 17 4 9 1011.5 0.0
8/02 5:50 pm 25.9 18.9 65 22.7 E 9 21 5 11 1010.9 0.0
8/02 5:20 pm 26.6 18.7 62 24.8 ENE 7 15 4 8 1010.5 0.0
8/02 4:50 pm 27.3 16.8 53 24.7 E 7 15 4 8 1010.4 0.0
8/02 4:20 pm 27.8 17.6 54 25.5 ENE 7 14 4 8 1010.2 0.0
8/02 3:50 pm 28.4 16.7 49 25.7 ENE 7 23 4 12 1010.4 0.0
8/02 3:20 pm 28.7 16.8 49 24.7 E 9 15 5 8 1010.6 0.0
8/02 2:50 pm 28.6 16.9 49 26.7 E 6 12 3 6 1010.9 0.0
8/02 2:20 pm 28.9 17.1 49 27.1 E 6 14 3 8 1011.2 0.0
8/02 1:50 pm 30.3 18.4 49 27.7 E 8 21 4 11 1011.3 0.0
8/02 1:20 pm 29.4 17.2 48 26.3 E 8 17 4 9 1011.5 0.0
8/02 12:50 pm 30.1 18.0 48 27.2 E 8 15 4 8 1011.8 0.0
8/02 12:20 pm 30.2 18.3 49 27.5 E 5 17 3 9 1012.1 0.0
8/02 11:50 am 29.9 18.4 50 29.3 E 5 17 3 9 1012.1 0.0
8/02 11:20 am 28.6 18.0 53 26.5 E 7 15 4 8 1012.5 0.0
8/02 10:50 am 29.3 18.3 52 27.4 E 7 15 4 8 1012.7 0.0
8/02 10:20 am 27.5 19.1 60 25.8 SSE 7 15 4 8 1012.9 0.0
8/02 9:50 am 28.1 19.1 58 28.6 E 4 15 2 8 1012.9 0.0
8/02 9:20 am 26.4 18.8 63 25.3 E 6 14 3 8 1013.1 0.0
8/02 8:50 am 26.0 18.9 65 25.7 E 5 15 3 8 1013.2 0.0
8/02 8:20 am 25.8 19.4 68 28.5 ESE 1 10 1 5 1013.0 0.0
8/02 7:50 am 24.9 19.6 72 25.6 SSE 4 14 2 8 1013.1 0.0
8/02 7:20 am 23.8 19.7 78 25.3 SSE 3 10 2 5 1013.0 0.0
8/02 6:50 am 21.8 18.9 84 24.3 S 1 4 1 2 1012.9 0.0
8/02 6:20 am 20.9 18.5 86 23.9 SW 0 4 0 2 1012.7 0.0
8/02 5:50 am 20.6 18.3 87 22.8 SSW 1 6 1 3 1012.4 0.0
8/02 5:20 am 20.7 18.3 86 23.6 SSW 0 4 0 2 1012.0 0.0
8/02 4:50 am 21.1 18.4 85 24.1 SSW 0 4 0 2 1011.8 0.0
8/02 4:20 am 21.3 18.6 84 24.3 CALM 0 2 0 1 1011.6 0.0
8/02 3:50 am 21.6 18.7 83 24.6 SSW 0 4 0 2 1011.4 0.0
24 to 48 hours ago
Date/Time(AEST) Temp. °C Dew Point °C Relative Humidity % Appararent Temp. °C Wind Direction Wind Speed (kph) Wind Gust (kph) Wind Speed (kts) Wind Gust (kts) MSL Pressure (hPa) Rain since midnight (mm)
8/02 3:20 am 22.0 18.9 83 24.5 S 1 6 1 3 1011.6 0.0
8/02 2:50 am 21.9 18.9 83 25.1 CALM 0 2 0 1 1011.5 0.0
8/02 2:20 am 22.3 19.1 82 25.6 SSW 0 4 0 2 1012.0 0.0
8/02 1:50 am 22.4 19.2 82 25 S 1 14 1 8 1012.0 0.0
8/02 1:20 am 22.3 19.1 82 25.6 CALM 0 0 0 0 1012.2 0.0
8/02 12:50 am 22.3 18.9 81 25.5 CALM 0 4 0 2 1012.6 0.0
8/02 12:20 am 22.5 18.9 80 25.7 CALM 0 0 0 0 1012.8 0.0
7/02 11:50 pm 22.8 18.9 79 26 CALM 0 2 0 1 1013.1 0.0
7/02 11:20 pm 23.2 19.1 78 26.5 ENE 0 4 0 2 1013.4 0.0
7/02 10:50 pm 23.3 19.1 77 25.1 ESE 2 8 1 4 1013.5 0.0
7/02 10:20 pm 23.5 19.3 77 25.4 SE 2 6 1 3 1013.8 0.0
7/02 9:50 pm 23.5 19.2 77 26.1 E 1 6 1 3 1013.9 0.0
7/02 9:20 pm 23.6 19.2 77 27 SSE 0 6 0 3 1014.0 0.0
7/02 8:50 pm 23.8 19.4 76 25.8 E 2 6 1 3 1013.9 0.0
7/02 8:20 pm 24.2 19.2 74 26.9 ESE 1 8 1 4 1013.7 0.0
7/02 7:50 pm 24.3 18.9 72 24.7 E 4 12 2 6 1013.7 0.0
7/02 7:20 pm 24.7 19.1 71 26.6 E 2 15 1 8 1013.2 0.0
7/02 6:50 pm 25.0 18.9 69 26.8 NE 2 14 1 8 1012.8 0.0
7/02 6:20 pm 25.4 18.7 66 24.2 ENE 6 15 3 8 1012.4 0.0
7/02 5:50 pm 25.9 18.8 65 25.5 ENE 5 12 3 6 1012.2 0.0
7/02 5:20 pm 26.2 18.6 63 23.6 ENE 8 23 4 12 1012.0 0.0
7/02 4:50 pm 26.5 18.9 63 23.4 ENE 9 19 5 10 1011.8 0.0
7/02 4:20 pm 26.7 19.6 65 24.6 NE 8 21 4 11 1011.9 0.0
7/02 3:50 pm 27.5 19.9 63 27.6 ENE 5 15 3 8 1012.1 0.0
7/02 3:20 pm 27.5 19.9 63 26.9 ENE 6 12 3 6 1012.2 0.0
7/02 2:50 pm 27.4 19.7 63 25.4 ENE 8 17 4 9 1012.4 0.0
7/02 2:20 pm 28.2 19.9 61 27 ENE 7 17 4 9 1012.6 0.0
7/02 1:50 pm 28.2 19.6 60 26.8 ENE 7 14 4 8 1012.6 0.0
7/02 1:20 pm 28.3 20.1 61 26.4 NE 8 19 4 10 1012.9 0.0
7/02 12:50 pm 27.7 19.9 63 26.5 NE 7 17 4 9 1013.2 0.0
7/02 12:20 pm 28.3 19.3 58 26.7 E 6 14 3 8 1013.3 0.0
7/02 11:50 am 28.9 19.7 57 28.2 ENE 6 14 3 8 1013.3 0.0
7/02 11:20 am 28.9 19.5 57 27.5 E 7 17 4 9 1013.8 0.0
7/02 10:50 am 27.9 19.6 60 28.5 ENE 4 10 2 5 1013.7 0.0
7/02 10:20 am 28.4 20.2 61 30.1 NE 3 6 2 3 1014.3 0.0
7/02 9:50 am 28.0 20.3 63 29 E 4 10 2 5 1014.4 0.0
7/02 9:20 am 27.0 20.7 68 28.9 E 3 10 2 5 1014.3 0.0
7/02 8:50 am 26.3 19.9 68 26.5 SSE 5 12 3 6 1014.0 0.0
7/02 8:20 am 25.7 19.9 71 27.3 ESE 3 14 2 8 1014.1 0.0
7/02 7:50 am 25.0 20.1 74 25.9 ESE 4 12 2 6 1014.1 0.0
7/02 7:20 am 23.4 19.8 80 24.9 S 3 8 2 4 1014.3 0.0
7/02 6:50 am 21.2 19.1 87 21.6 SSW 4 10 2 5 1013.9 0.0
7/02 6:20 am 19.6 18.4 93 21.9 SSW 1 6 1 3 1013.9 0.0
7/02 5:50 am 18.4 17.3 93 20.9 CALM 0 0 0 0 1013.7 0.0
7/02 5:20 am 18.6 17.3 93 21.2 CALM 0 0 0 0 1013.4 0.0
7/02 4:50 am 18.7 17.4 92 21.2 CALM 0 0 0 0 1013.3 0.0
7/02 4:20 am 18.9 17.6 92 21.5 CALM 0 2 0 1 1013.0 0.0
7/02 3:50 am 18.9 17.6 92 21.5 ESE 0 2 0 1 1013.2 0.0
48 to 72 hours ago
Date/Time(AEST) Temp. °C Dew Point °C Relative Humidity % Appararent Temp. °C Wind Direction Wind Speed (kph) Wind Gust (kph) Wind Speed (kts) Wind Gust (kts) MSL Pressure (hPa) Rain since midnight (mm)
7/02 3:20 am 19.2 17.7 91 21.9 CALM 0 0 0 0 1013.2 0.0
7/02 2:50 am 19.7 17.8 89 22.4 CALM 0 0 0 0 1013.4 0.0
7/02 2:20 am 20.1 18.1 88 22.9 CALM 0 2 0 1 1013.5 0.0
7/02 1:50 am 20.6 18.2 86 23.5 CALM 0 0 0 0 1013.8 0.0
7/02 1:20 am 21.0 18.4 85 24 CALM 0 0 0 0 1014.0 0.0
7/02 12:50 am 21.4 18.6 84 24.4 CALM 0 2 0 1 1014.1 0.0
7/02 12:20 am 22.0 18.8 82 25.1 CALM 0 0 0 0 1014.3 0.0
6/02 11:50 pm 22.6 18.8 79 25.7 CALM 0 2 0 1 1014.6 0.0
6/02 11:20 pm 23.1 19.0 78 25.7 SSE 1 6 1 3 1015.0 0.0
6/02 10:50 pm 23.4 19.2 77 26.7 CALM 0 2 0 1 1015.2 0.0
6/02 10:20 pm 23.7 19.2 76 25.6 ESE 2 8 1 4 1015.3 0.0
6/02 9:50 pm 23.8 19.2 75 26.4 E 1 6 1 3 1015.3 0.0
6/02 9:20 pm 24.0 19.3 75 27.4 CALM 0 0 0 0 1015.6 0.0
6/02 8:50 pm 24.3 19.4 74 26.3 E 2 8 1 4 1015.4 0.0
6/02 8:20 pm 24.6 19.5 74 26 E 3 12 2 6 1015.3 0.0
6/02 7:50 pm 24.8 19.3 72 24.7 E 5 14 3 8 1015.1 0.0
6/02 7:20 pm 25.1 19.2 70 24.9 E 5 12 3 6 1015.1 0.0
6/02 6:50 pm 25.4 19.3 69 23.9 E 7 14 4 8 1014.7 0.0
6/02 6:20 pm 25.9 19.6 68 25.9 ENE 5 17 3 9 1014.7 0.0
6/02 5:50 pm 26.8 19.6 65 26.1 ENE 6 19 3 10 1014.4 0.0
6/02 5:20 pm 27.8 19.8 62 27.2 ENE 6 15 3 8 1014.1 0.0
6/02 4:50 pm 28.6 19.8 59 26.6 NE 8 14 4 8 1014.1 0.0
6/02 4:20 pm 29.1 19.4 56 27.6 ENE 7 15 4 8 1014.1 0.0
6/02 3:50 pm 29.7 19.4 54 27.5 ENE 8 15 4 8 1014.0 0.0
6/02 3:20 pm 29.8 19.8 55 27.1 ENE 9 19 5 10 1014.0 0.0
6/02 2:50 pm 30.7 20.3 54 28.2 NE 9 17 5 9 1014.1 0.0
6/02 2:20 pm 30.9 20.1 53 27.7 ENE 10 21 5 11 1014.3 0.0
6/02 1:50 pm 30.9 20.3 53 28.4 E 9 17 5 9 1014.6 0.0
6/02 1:20 pm 31.2 20.4 53 27.4 NE 11 23 6 12 1014.9 0.0
6/02 12:50 pm 31.5 20.7 53 29.3 ENE 9 25 5 13 1015.1 0.0
6/02 12:20 pm 31.1 19.7 51 29.1 E 8 17 4 9 1015.6 0.0
6/02 11:50 am 31.3 19.3 49 29.1 ENE 8 17 4 9 1015.6 0.0
6/02 11:20 am 31.2 19.1 48 28.8 ESE 8 17 4 9 1015.8 0.0
6/02 10:50 am 30.6 18.5 48 28.6 ENE 7 14 4 8 1015.8 0.0
6/02 10:20 am 30.2 19.6 53 29.5 E 6 14 3 8 1016.1 0.0
6/02 9:50 am 29.4 19.7 56 28.1 E 7 19 4 10 1016.3 0.0
6/02 9:20 am 29.1 20.5 60 28.9 SE 6 17 3 9 1016.3 0.0
6/02 8:50 am 27.2 20.8 68 26.4 ESE 7 17 4 9 1016.5 0.0
6/02 8:20 am 26.1 20.7 72 24.5 SSE 8 15 4 8 1016.5 0.0
6/02 7:50 am 24.9 20.4 76 24.6 ESE 6 15 3 8 1016.6 0.0
6/02 7:20 am 24.0 20.1 78 25.6 SE 3 12 2 6 1016.3 0.0
6/02 6:50 am 22.1 19.2 84 24.1 SSW 2 8 1 4 1016.1 0.0
6/02 6:20 am 21.2 18.7 86 22.9 SSW 2 8 1 4 1015.8 0.0
6/02 5:50 am 20.7 18.4 87 23 SSW 1 6 1 3 1015.6 0.0
6/02 5:20 am 20.6 18.4 88 22.9 SSW 1 4 1 2 1015.2 0.0
6/02 4:50 am 20.6 18.4 88 23.6 SSW 0 4 0 2 1014.7 0.0
6/02 4:20 am 20.5 18.4 88 22.8 SW 1 6 1 3 1014.2 0.0
6/02 3:50 am 20.4 18.4 88 23.3 SW 0 4 0 2 1014.0 0.0